Terminal Aerodrome Forecast
Issued by NWS Blacksburg, VA

Current Version | Previous Version | Text Only | Print | Product List | Glossary Off
Versions: 1 2 3 4 5 6 7 8 9 10 11 12 13 14 15 16 17 18 19 20 21 22 23 24 25 26 27 28 29 30 31 32 33 34 35 36 37 38 39 40 41 42 43 44 45 46

000
FTUS41 KRNK 010522
TAFBLF
TAF
KBLF 010522Z 0106/0206 18006KT P6SM SCT050 OVC100
     FM011100 15003KT 6SM -RA BR FEW015 OVC035
     FM011400 12004KT 4SM -RA BR OVC015
     FM012000 13005KT P6SM -SHRA SCT020 OVC035=

USA.gov is the U.S. government's official web portal to all federal, state and local government web resources and services.